createdAt,value
2023-12-20T00:00:07.804Z,35.87
2023-12-20T00:00:45.105Z,35.60
2023-12-20T00:01:17.379Z,34.03
2023-12-20T00:01:49.601Z,35.00
2023-12-20T00:02:21.674Z,36.33
2023-12-20T00:02:53.675Z,36.60
2023-12-20T00:03:25.856Z,35.97
2023-12-20T00:03:58.252Z,37.03
2023-12-20T00:04:30.339Z,37.13
2023-12-20T00:05:05.200Z,37.73
2023-12-20T00:05:39.532Z,36.07
2023-12-20T00:06:11.813Z,36.63
2023-12-20T00:06:44.114Z,37.27
2023-12-20T00:07:17.510Z,37.70
2023-12-20T00:07:49.958Z,39.20
2023-12-20T00:08:22.417Z,38.80
2023-12-20T00:08:54.939Z,39.00
2023-12-20T00:09:27.021Z,38.93
2023-12-20T00:09:59.219Z,40.70
2023-12-20T00:10:31.436Z,41.90
2023-12-20T00:11:03.546Z,42.07
2023-12-20T00:11:35.722Z,41.03
2023-12-20T00:12:08.021Z,40.17
2023-12-20T00:12:42.389Z,39.80
2023-12-20T00:13:14.531Z,41.50
2023-12-20T00:13:51.747Z,41.63
2023-12-20T00:14:24.144Z,42.63
2023-12-20T00:14:56.187Z,43.80
2023-12-20T00:15:28.219Z,42.13
2023-12-20T00:16:00.635Z,42.80
2023-12-20T00:16:33.239Z,43.37
2023-12-20T00:17:05.570Z,42.30
2023-12-20T00:17:37.701Z,42.33
2023-12-20T00:18:10.097Z,42.00
2023-12-20T00:18:42.270Z,43.47
2023-12-20T00:19:14.467Z,42.70
2023-12-20T00:19:46.662Z,42.97
2023-12-20T00:20:18.988Z,44.23
2023-12-20T00:20:51.082Z,43.27
2023-12-20T00:21:23.306Z,41.87
2023-12-20T00:21:58.561Z,42.33
2023-12-20T00:22:30.682Z,42.70
2023-12-20T00:23:03.687Z,43.53
2023-12-20T00:23:35.785Z,41.70
2023-12-20T00:24:07.861Z,40.73
2023-12-20T00:24:39.885Z,39.63
2023-12-20T00:25:12.329Z,38.80
2023-12-20T00:25:46.604Z,39.70
2023-12-20T00:26:18.781Z,38.90
2023-12-20T00:26:51.002Z,38.77
2023-12-20T00:27:22.956Z,40.80
2023-12-20T00:27:55.095Z,40.40
2023-12-20T00:28:27.252Z,39.77
2023-12-20T00:29:01.989Z,39.73
2023-12-20T00:29:37.039Z,40.43
2023-12-20T00:30:10.139Z,40.00
2023-12-20T00:30:42.390Z,38.87
2023-12-20T00:31:14.874Z,39.73
2023-12-20T00:31:47.087Z,41.77
2023-12-20T00:32:22.581Z,40.87
2023-12-20T00:32:55.287Z,41.77
2023-12-20T00:33:27.516Z,41.17
2023-12-20T00:33:59.812Z,41.83
2023-12-20T00:34:32.048Z,41.73
2023-12-20T00:35:04.431Z,40.67
2023-12-20T00:35:36.461Z,39.80
2023-12-20T00:36:08.544Z,41.00
2023-12-20T00:36:40.647Z,42.90
2023-12-20T00:37:12.729Z,43.40
2023-12-20T00:37:45.706Z,44.23
2023-12-20T00:38:18.069Z,42.10
2023-12-20T00:38:51.195Z,42.20
2023-12-20T00:39:23.228Z,42.13
2023-12-20T00:39:55.324Z,41.60
2023-12-20T00:40:27.422Z,41.07
2023-12-20T00:40:59.548Z,39.87
2023-12-20T00:41:31.710Z,40.87
2023-12-20T00:42:03.801Z,40.93
2023-12-20T00:42:36.755Z,41.07
2023-12-20T00:43:08.882Z,42.13
2023-12-20T00:43:41.024Z,41.70
2023-12-20T00:44:13.223Z,40.73
2023-12-20T00:44:45.360Z,40.10
2023-12-20T00:45:17.431Z,41.33
2023-12-20T00:45:49.566Z,42.37
2023-12-20T00:46:21.825Z,43.80
2023-12-20T00:46:53.995Z,43.03
2023-12-20T00:47:26.155Z,40.33
2023-12-20T00:48:00.762Z,41.13
2023-12-20T00:48:36.379Z,40.87
2023-12-20T00:49:08.656Z,40.57
2023-12-20T00:49:40.859Z,42.33
2023-12-20T00:50:15.933Z,41.33
2023-12-20T00:50:48.253Z,41.87
2023-12-20T00:51:22.588Z,41.67
2023-12-20T00:51:54.790Z,41.03
2023-12-20T00:52:27.135Z,41.13
2023-12-20T00:53:00.040Z,41.73
2023-12-20T00:53:32.069Z,41.17
2023-12-20T00:54:04.238Z,38.50
2023-12-20T00:54:39.343Z,40.67
2023-12-20T00:55:11.672Z,41.30
2023-12-20T00:55:45.657Z,38.30
2023-12-20T00:56:17.980Z,41.33
2023-12-20T00:56:50.143Z,41.07
2023-12-20T00:57:22.186Z,40.87
2023-12-20T00:57:54.731Z,42.07
2023-12-20T00:58:29.814Z,40.57
2023-12-20T00:59:01.998Z,41.07
2023-12-20T00:59:34.325Z,41.37
2023-12-20T01:00:07.351Z,40.30
2023-12-20T01:00:41.525Z,40.17
2023-12-20T01:01:15.250Z,40.10
2023-12-20T01:01:47.715Z,40.67
2023-12-20T01:02:20.772Z,41.97
2023-12-20T01:02:53.009Z,41.53
2023-12-20T01:03:25.434Z,41.87
2023-12-20T01:03:59.917Z,41.80
2023-12-20T01:04:34.710Z,43.33
2023-12-20T01:05:10.750Z,41.60
2023-12-20T01:05:42.833Z,39.80
2023-12-20T01:06:18.134Z,38.87
2023-12-20T01:06:56.385Z,39.40
2023-12-20T01:07:28.478Z,39.83
2023-12-20T01:08:03.071Z,40.93
2023-12-20T01:08:36.361Z,40.40
2023-12-20T01:09:10.925Z,40.40
2023-12-20T01:09:42.939Z,40.70
2023-12-20T01:10:15.134Z,41.47
2023-12-20T01:10:50.094Z,41.17
2023-12-20T01:11:25.403Z,39.30
2023-12-20T01:11:57.523Z,39.47
2023-12-20T01:12:29.562Z,40.30
2023-12-20T01:13:01.803Z,40.63
2023-12-20T01:13:36.903Z,39.97
2023-12-20T01:14:11.791Z,39.70
2023-12-20T01:14:44.163Z,39.87
2023-12-20T01:15:19.911Z,40.37
2023-12-20T01:15:54.530Z,40.60
2023-12-20T01:16:29.481Z,40.63
2023-12-20T01:17:07.129Z,40.83
2023-12-20T01:17:42.447Z,40.37
2023-12-20T01:18:17.027Z,40.57
2023-12-20T01:18:51.795Z,41.90
2023-12-20T01:19:25.392Z,40.83
2023-12-20T01:19:57.740Z,40.57
2023-12-20T01:20:32.990Z,40.83
2023-12-20T01:21:05.351Z,40.83
2023-12-20T01:21:42.391Z,41.33
2023-12-20T01:22:19.323Z,40.70
2023-12-20T01:22:51.497Z,38.87
2023-12-20T01:23:23.602Z,39.47
2023-12-20T01:23:55.709Z,41.07
2023-12-20T01:25:00.811Z,42.00
2023-12-20T01:25:33.043Z,41.57
2023-12-20T01:26:06.716Z,40.07
2023-12-20T01:26:38.916Z,39.70
2023-12-20T01:27:14.198Z,40.43
2023-12-20T01:27:49.061Z,41.70
2023-12-20T01:28:21.301Z,41.77
2023-12-20T01:28:53.480Z,41.73
2023-12-20T01:29:25.649Z,40.87
2023-12-20T01:30:31.103Z,40.83
2023-12-20T01:31:06.506Z,42.43
2023-12-20T01:31:38.838Z,41.50
2023-12-20T01:32:11.236Z,39.37
2023-12-20T01:32:45.872Z,41.47
2023-12-20T01:33:43.076Z,40.97
2023-12-20T01:34:15.607Z,39.30
2023-12-20T01:35:21.222Z,40.23
2023-12-20T01:35:56.024Z,40.53
2023-12-20T01:36:30.407Z,41.70
2023-12-20T01:37:02.586Z,39.47
2023-12-20T01:37:40.631Z,39.53
2023-12-20T01:38:12.642Z,41.00
2023-12-20T01:38:44.800Z,41.10
2023-12-20T01:39:25.388Z,42.50
2023-12-20T01:40:00.537Z,41.63
2023-12-20T01:40:32.730Z,41.63
2023-12-20T01:41:08.690Z,42.43
2023-12-20T01:41:44.684Z,41.33
2023-12-20T01:42:17.023Z,43.00
2023-12-20T01:42:49.158Z,42.70
2023-12-20T01:43:25.608Z,42.10
2023-12-20T01:43:59.789Z,42.10
2023-12-20T01:44:32.123Z,41.87
2023-12-20T01:45:04.680Z,39.57
2023-12-20T01:45:37.438Z,40.00
2023-12-20T01:46:12.462Z,40.33
2023-12-20T01:46:44.518Z,41.10
2023-12-20T01:47:16.880Z,41.20
2023-12-20T01:47:49.104Z,41.37
2023-12-20T01:48:21.831Z,40.43
2023-12-20T01:48:56.204Z,41.17
2023-12-20T01:50:01.408Z,40.70
2023-12-20T01:50:38.587Z,41.90
2023-12-20T01:51:12.202Z,41.17
2023-12-20T01:51:47.187Z,41.27
2023-12-20T01:52:22.168Z,41.50
2023-12-20T01:52:59.074Z,40.80
2023-12-20T01:53:31.368Z,42.97
2023-12-20T01:54:04.821Z,44.50
2023-12-20T01:55:16.757Z,45.07
2023-12-20T01:55:51.774Z,45.67
2023-12-20T01:56:24.556Z,45.00
2023-12-20T01:56:57.154Z,45.97
2023-12-20T01:57:29.869Z,46.63
2023-12-20T01:58:03.661Z,47.40
2023-12-20T01:58:40.138Z,48.53
2023-12-20T01:59:12.634Z,47.93
2023-12-20T01:59:46.111Z,46.87
2023-12-20T02:00:20.543Z,47.73
2023-12-20T02:00:58.128Z,47.47
2023-12-20T02:01:33.235Z,48.13
2023-12-20T02:02:05.785Z,47.37
2023-12-20T02:02:41.224Z,48.07
2023-12-20T02:03:18.177Z,49.10
2023-12-20T02:03:51.322Z,49.97
2023-12-20T02:04:23.838Z,48.47
2023-12-20T02:04:56.648Z,47.07
2023-12-20T02:05:29.792Z,46.13
2023-12-20T02:06:02.126Z,47.07
2023-12-20T02:06:37.794Z,46.43
2023-12-20T02:07:10.803Z,49.40
2023-12-20T02:07:43.371Z,48.60
2023-12-20T02:08:17.984Z,48.67
2023-12-20T02:08:51.684Z,50.67
2023-12-20T02:09:24.153Z,48.47
2023-12-20T02:09:56.915Z,49.47
2023-12-20T02:10:30.471Z,49.77
2023-12-20T02:11:04.490Z,49.20
2023-12-20T02:11:37.505Z,49.70
2023-12-20T02:12:09.696Z,46.57
2023-12-20T02:12:47.232Z,46.37
2023-12-20T02:13:20.613Z,48.07
2023-12-20T02:13:53.084Z,49.30
2023-12-20T02:14:27.541Z,48.60
2023-12-20T02:15:02.344Z,46.83
2023-12-20T02:15:34.560Z,46.27
2023-12-20T02:16:08.865Z,46.83
2023-12-20T02:16:44.078Z,47.20
2023-12-20T02:17:17.530Z,48.43
2023-12-20T02:17:50.510Z,47.37
2023-12-20T02:18:23.002Z,47.80
2023-12-20T02:18:55.306Z,47.93
2023-12-20T02:19:31.865Z,47.93
2023-12-20T02:20:07.310Z,48.23
2023-12-20T02:20:39.546Z,48.43
2023-12-20T02:21:12.102Z,46.53
2023-12-20T02:21:44.262Z,47.90
2023-12-20T02:22:16.465Z,48.53
2023-12-20T02:22:48.750Z,47.50
2023-12-20T02:23:22.937Z,47.73
2023-12-20T02:23:55.005Z,48.73
2023-12-20T02:24:27.063Z,48.70
2023-12-20T02:25:04.463Z,46.77
2023-12-20T02:25:36.592Z,49.43
2023-12-20T02:26:09.105Z,48.33
2023-12-20T02:26:44.810Z,48.67
2023-12-20T02:27:21.409Z,50.27
2023-12-20T02:27:55.601Z,51.13
2023-12-20T02:28:31.709Z,51.67
2023-12-20T02:29:03.961Z,49.83
2023-12-20T02:29:37.417Z,48.97
2023-12-20T02:30:10.186Z,48.80
2023-12-20T02:30:42.473Z,47.87
2023-12-20T02:31:14.662Z,50.90
2023-12-20T02:31:46.863Z,51.57
2023-12-20T02:32:27.152Z,51.13
2023-12-20T02:33:02.428Z,47.97
2023-12-20T02:33:34.517Z,49.90
2023-12-20T02:34:06.616Z,48.27
2023-12-20T02:34:38.951Z,49.93
2023-12-20T02:35:13.035Z,47.93
2023-12-20T02:35:48.970Z,48.10
2023-12-20T02:36:21.164Z,48.10
2023-12-20T02:36:56.308Z,47.90
2023-12-20T02:37:31.437Z,48.20
2023-12-20T02:38:03.535Z,48.10
2023-12-20T02:38:35.542Z,48.57
2023-12-20T02:39:07.940Z,48.77
2023-12-20T02:39:40.015Z,49.23
2023-12-20T02:40:12.745Z,48.73
2023-12-20T02:40:49.520Z,48.63
2023-12-20T02:41:22.299Z,46.90
2023-12-20T02:41:54.297Z,44.60
2023-12-20T02:42:26.316Z,45.10
2023-12-20T02:42:59.783Z,44.17
2023-12-20T02:43:34.283Z,43.97
2023-12-20T02:44:06.296Z,44.80
2023-12-20T02:44:38.441Z,46.40
2023-12-20T02:45:10.637Z,46.03
2023-12-20T02:45:42.722Z,46.43
2023-12-20T02:46:18.142Z,46.20
2023-12-20T02:46:50.369Z,46.87
2023-12-20T02:47:22.709Z,48.37
2023-12-20T02:47:54.988Z,45.63
2023-12-20T02:48:27.175Z,44.43
2023-12-20T02:48:59.384Z,45.03
2023-12-20T02:49:37.235Z,45.67
2023-12-20T02:50:09.735Z,44.17
2023-12-20T02:50:42.032Z,43.67
2023-12-20T02:51:14.053Z,43.23
2023-12-20T02:51:46.133Z,41.70
2023-12-20T02:52:18.307Z,41.93
2023-12-20T02:52:50.389Z,42.27
2023-12-20T02:53:22.367Z,42.67
2023-12-20T02:53:54.555Z,45.13
2023-12-20T02:54:26.725Z,45.00
2023-12-20T02:54:58.927Z,46.23
2023-12-20T02:55:33.362Z,45.90
2023-12-20T02:56:05.759Z,45.07
2023-12-20T02:56:37.791Z,45.23
2023-12-20T02:57:09.846Z,44.17
2023-12-20T02:57:43.592Z,47.20
2023-12-20T02:58:15.989Z,47.97
2023-12-20T02:58:48.073Z,49.30
2023-12-20T02:59:20.281Z,49.30
2023-12-20T02:59:52.381Z,50.17
2023-12-20T03:00:24.492Z,50.37
2023-12-20T03:00:56.819Z,48.70
2023-12-20T03:02:20.137Z,48.57
2023-12-20T03:02:52.375Z,49.10
2023-12-20T03:03:24.451Z,49.57
2023-12-20T03:03:56.649Z,48.50
2023-12-20T03:04:28.882Z,47.43
2023-12-20T03:05:01.771Z,49.87
2023-12-20T03:05:34.444Z,48.50
2023-12-20T03:06:06.702Z,50.00
2023-12-20T03:06:39.109Z,50.20
2023-12-20T03:07:11.285Z,49.47
2023-12-20T03:07:43.681Z,47.07
2023-12-20T03:08:15.937Z,47.00
2023-12-20T03:08:48.150Z,47.40
2023-12-20T03:09:21.729Z,46.70
2023-12-20T03:10:06.256Z,45.30
2023-12-20T03:10:45.978Z,47.03
2023-12-20T03:11:18.015Z,47.93
2023-12-20T03:11:53.184Z,46.93
2023-12-20T03:12:25.377Z,47.47
2023-12-20T03:12:57.348Z,47.27
2023-12-20T03:13:29.365Z,46.83
2023-12-20T03:14:01.624Z,45.97
2023-12-20T03:14:33.703Z,44.80
2023-12-20T03:15:06.219Z,45.73
2023-12-20T03:15:38.834Z,46.73
2023-12-20T03:16:14.990Z,45.77
2023-12-20T03:16:53.180Z,46.03
2023-12-20T03:17:26.378Z,46.50
2023-12-20T03:18:00.347Z,47.00
2023-12-20T03:18:34.848Z,47.43
2023-12-20T03:19:06.906Z,47.20
2023-12-20T03:19:39.031Z,46.97
2023-12-20T03:20:12.305Z,45.43
2023-12-20T03:20:44.418Z,46.47
2023-12-20T03:21:16.566Z,46.27
2023-12-20T03:21:48.664Z,45.97
2023-12-20T03:22:20.692Z,46.90
2023-12-20T03:22:52.664Z,46.33
2023-12-20T03:23:24.649Z,44.97
2023-12-20T03:23:56.626Z,46.33
2023-12-20T03:24:29.031Z,46.57
2023-12-20T03:25:01.165Z,46.53
2023-12-20T03:25:33.376Z,46.50
2023-12-20T03:26:08.699Z,44.27
2023-12-20T03:26:40.791Z,44.30
2023-12-20T03:27:12.720Z,45.07
2023-12-20T03:27:44.927Z,45.67
2023-12-20T03:28:17.485Z,44.83
2023-12-20T03:28:50.211Z,45.83
2023-12-20T03:29:22.277Z,46.03
2023-12-20T03:29:54.408Z,44.77
2023-12-20T03:30:26.336Z,46.57
2023-12-20T03:30:58.515Z,46.90
2023-12-20T03:31:30.626Z,48.27
2023-12-20T03:32:02.594Z,47.57
2023-12-20T03:32:34.781Z,48.03
2023-12-20T03:33:06.875Z,48.67
2023-12-20T03:33:38.865Z,49.70
2023-12-20T03:34:11.997Z,49.73
2023-12-20T03:34:44.300Z,48.50
2023-12-20T03:35:16.360Z,49.77
2023-12-20T03:35:48.255Z,49.57
2023-12-20T03:36:20.509Z,48.67
2023-12-20T03:36:52.504Z,48.03
2023-12-20T03:37:25.013Z,49.40
2023-12-20T03:37:58.245Z,51.50
2023-12-20T03:38:30.237Z,52.90
2023-12-20T03:39:02.177Z,52.40
2023-12-20T03:39:34.276Z,51.20
2023-12-20T03:40:06.832Z,50.77
2023-12-20T03:40:38.869Z,50.40
2023-12-20T03:41:10.814Z,50.13
2023-12-20T03:41:42.890Z,48.97
2023-12-20T03:42:14.885Z,52.13
2023-12-20T03:42:47.179Z,51.73
2023-12-20T03:43:19.292Z,50.50
2023-12-20T03:43:51.336Z,51.33
2023-12-20T03:44:23.344Z,50.93
2023-12-20T03:44:55.394Z,52.23
2023-12-20T03:45:27.369Z,51.00
2023-12-20T03:46:00.165Z,51.67
2023-12-20T03:46:32.202Z,51.37
2023-12-20T03:47:04.398Z,53.57
2023-12-20T03:47:36.453Z,52.50
2023-12-20T03:48:08.677Z,50.63
2023-12-20T03:48:40.690Z,51.73
2023-12-20T03:49:12.718Z,52.70
2023-12-20T03:49:44.734Z,53.47
2023-12-20T03:50:17.149Z,53.50
2023-12-20T03:50:49.184Z,52.67
2023-12-20T03:51:21.221Z,51.97
2023-12-20T03:51:54.734Z,50.27
2023-12-20T03:52:26.686Z,50.23
2023-12-20T03:52:58.708Z,50.43
2023-12-20T03:53:30.686Z,50.63
2023-12-20T03:54:02.670Z,51.03
2023-12-20T03:54:36.225Z,53.87
2023-12-20T03:55:08.504Z,52.13
2023-12-20T03:55:40.556Z,52.40
2023-12-20T03:56:12.573Z,53.30
2023-12-20T03:56:44.519Z,52.93
2023-12-20T03:57:16.598Z,53.90
2023-12-20T03:57:48.869Z,55.23
2023-12-20T03:58:21.035Z,55.17
2023-12-20T03:58:53.248Z,55.33
2023-12-20T03:59:25.175Z,55.53
2023-12-20T03:59:57.095Z,56.70
2023-12-20T04:00:29.125Z,54.53
2023-12-20T04:01:01.089Z,55.63
2023-12-20T04:01:33.229Z,57.50
2023-12-20T04:02:05.641Z,57.27
2023-12-20T04:02:41.197Z,55.77
2023-12-20T04:03:14.774Z,56.33
2023-12-20T04:03:46.785Z,54.80
2023-12-20T04:04:18.998Z,56.93
2023-12-20T04:04:51.178Z,58.33
2023-12-20T04:05:23.281Z,58.37
2023-12-20T04:05:55.366Z,57.03
2023-12-20T04:06:27.426Z,60.03
2023-12-20T04:06:59.584Z,59.90
2023-12-20T04:07:31.992Z,60.53
2023-12-20T04:08:05.479Z,61.03
2023-12-20T04:08:37.539Z,60.63
2023-12-20T04:09:10.730Z,59.33
2023-12-20T04:09:42.996Z,59.00
2023-12-20T04:10:15.057Z,58.30
2023-12-20T04:10:47.072Z,55.53
2023-12-20T04:11:19.107Z,56.03
2023-12-20T04:11:51.022Z,55.83
2023-12-20T04:12:23.089Z,57.80
2023-12-20T04:12:56.202Z,59.93
2023-12-20T04:13:28.197Z,61.03
2023-12-20T04:14:00.142Z,59.93
2023-12-20T04:14:32.200Z,56.73
2023-12-20T04:15:10.358Z,60.97
2023-12-20T04:15:42.587Z,62.00
2023-12-20T04:16:14.760Z,59.17
2023-12-20T04:16:47.881Z,57.27
2023-12-20T04:17:23.881Z,57.40
2023-12-20T04:17:55.896Z,56.10
2023-12-20T04:18:29.438Z,54.43
2023-12-20T04:19:02.384Z,55.57
2023-12-20T04:19:34.442Z,53.70
2023-12-20T04:20:07.421Z,55.77
2023-12-20T04:20:39.467Z,55.07
2023-12-20T04:21:11.409Z,54.30
2023-12-20T04:21:43.320Z,56.40
2023-12-20T04:22:15.329Z,56.57
2023-12-20T04:22:47.308Z,55.67
2023-12-20T04:23:19.348Z,56.20
2023-12-20T04:23:51.509Z,59.93
2023-12-20T04:24:23.801Z,59.03
2023-12-20T04:24:55.779Z,59.70
2023-12-20T04:25:27.864Z,58.73
2023-12-20T04:25:59.888Z,56.13
2023-12-20T04:26:31.847Z,58.17
2023-12-20T04:27:04.071Z,60.40
2023-12-20T04:27:36.108Z,56.80
2023-12-20T04:28:08.121Z,54.77
2023-12-20T04:28:40.123Z,54.00
2023-12-20T04:29:12.072Z,54.47
2023-12-20T04:29:44.016Z,54.43
2023-12-20T04:30:16.570Z,54.47
2023-12-20T04:30:48.787Z,54.20
2023-12-20T04:31:20.875Z,55.47
2023-12-20T04:31:53.078Z,55.30
2023-12-20T04:32:25.139Z,53.27
2023-12-20T04:32:58.214Z,53.70
2023-12-20T04:33:30.274Z,52.33
2023-12-20T04:34:02.250Z,53.87
2023-12-20T04:34:34.310Z,52.63
2023-12-20T04:35:06.723Z,51.87
2023-12-20T04:35:38.637Z,51.10
2023-12-20T04:36:10.753Z,51.30
2023-12-20T04:36:42.718Z,51.90
2023-12-20T04:37:14.716Z,51.00
2023-12-20T04:37:47.057Z,50.83
2023-12-20T04:38:19.102Z,49.87
2023-12-20T04:38:51.047Z,50.57
2023-12-20T04:39:23.055Z,53.37
2023-12-20T04:39:54.998Z,55.03
2023-12-20T04:40:27.122Z,53.23
2023-12-20T04:40:59.096Z,54.33
2023-12-20T04:41:31.130Z,53.40
2023-12-20T04:42:03.060Z,52.30
2023-12-20T04:42:35.092Z,52.43
2023-12-20T04:43:07.191Z,52.20
2023-12-20T04:43:39.147Z,57.13
2023-12-20T04:44:11.118Z,57.17
2023-12-20T04:44:44.981Z,53.63
2023-12-20T04:45:17.957Z,52.73
2023-12-20T04:45:49.933Z,50.80
2023-12-20T04:46:22.044Z,51.03
2023-12-20T04:46:54.028Z,51.73
2023-12-20T04:47:26.049Z,50.83
2023-12-20T04:47:58.105Z,53.07
2023-12-20T04:48:30.144Z,51.27
2023-12-20T04:49:02.694Z,51.60
2023-12-20T04:49:34.797Z,54.13
2023-12-20T04:50:07.938Z,55.23
2023-12-20T04:50:39.983Z,55.50
2023-12-20T04:51:11.966Z,55.63
2023-12-20T04:51:43.964Z,55.60
2023-12-20T04:52:16.115Z,57.27
2023-12-20T04:52:48.575Z,58.03
2023-12-20T04:53:20.506Z,56.13
2023-12-20T04:53:52.470Z,57.63
2023-12-20T04:54:24.482Z,59.53
2023-12-20T04:54:56.474Z,58.43
2023-12-20T04:55:28.552Z,56.30
2023-12-20T04:56:00.580Z,55.00
2023-12-20T04:56:32.540Z,55.60
2023-12-20T04:57:04.907Z,66.63
2023-12-20T04:57:36.997Z,68.27
2023-12-20T04:58:09.160Z,64.80
2023-12-20T04:58:41.112Z,64.43
2023-12-20T04:59:13.044Z,72.50
2023-12-20T04:59:45.021Z,81.87
2023-12-20T05:00:17.227Z,81.77
2023-12-20T05:00:49.307Z,89.83
2023-12-20T05:01:22.822Z,89.67
2023-12-20T05:01:54.985Z,102.27
2023-12-20T05:02:27.265Z,107.37
2023-12-20T05:02:59.256Z,103.83
2023-12-20T05:03:31.251Z,102.40
2023-12-20T05:04:03.255Z,105.07
2023-12-20T05:04:35.294Z,105.20
2023-12-20T05:05:07.549Z,105.00
2023-12-20T05:05:40.362Z,107.80
2023-12-20T05:06:12.386Z,105.83
2023-12-20T05:06:44.405Z,108.50
2023-12-20T05:07:16.506Z,112.83
2023-12-20T05:07:48.873Z,108.57
2023-12-20T05:08:21.451Z,110.17
2023-12-20T05:08:53.556Z,115.67
2023-12-20T05:09:25.470Z,115.27
2023-12-20T05:09:57.445Z,116.33
2023-12-20T05:10:29.645Z,114.10
2023-12-20T05:11:02.885Z,108.13
2023-12-20T05:11:34.850Z,101.13
2023-12-20T05:12:07.684Z,101.30
2023-12-20T05:12:39.760Z,97.93
2023-12-20T05:13:12.098Z,94.47
2023-12-20T05:13:49.844Z,91.53
2023-12-20T05:14:22.451Z,94.17
2023-12-20T05:14:54.376Z,93.00
2023-12-20T05:15:26.320Z,92.93
2023-12-20T05:15:58.251Z,95.87
2023-12-20T05:16:30.253Z,95.03
2023-12-20T05:17:02.265Z,96.23
2023-12-20T05:17:34.309Z,100.47
2023-12-20T05:18:06.772Z,99.33
2023-12-20T05:18:38.682Z,99.80
2023-12-20T05:19:10.646Z,103.13
2023-12-20T05:19:42.686Z,104.00
2023-12-20T05:20:14.796Z,102.13
2023-12-20T05:20:47.442Z,101.83
2023-12-20T05:21:19.808Z,93.40
2023-12-20T05:21:51.878Z,93.77
2023-12-20T05:22:23.956Z,96.67
2023-12-20T05:22:55.925Z,98.33
2023-12-20T05:23:27.852Z,97.80
2023-12-20T05:23:59.767Z,97.53
2023-12-20T05:24:31.691Z,96.60
2023-12-20T05:25:03.835Z,92.73
2023-12-20T05:25:35.723Z,98.20
2023-12-20T05:26:07.791Z,101.00
2023-12-20T05:26:39.659Z,101.40
2023-12-20T05:27:12.495Z,93.70
2023-12-20T05:27:44.706Z,90.27
2023-12-20T05:28:16.906Z,98.20
2023-12-20T05:28:48.900Z,103.03
2023-12-20T05:29:21.411Z,103.27
2023-12-20T05:29:53.353Z,103.03
2023-12-20T05:30:25.393Z,104.13
2023-12-20T05:30:57.615Z,103.90
2023-12-20T05:31:29.914Z,101.70
2023-12-20T05:32:01.957Z,102.50
2023-12-20T05:32:34.013Z,103.30
2023-12-20T05:33:06.113Z,107.80
2023-12-20T05:33:38.475Z,107.40
2023-12-20T05:34:10.662Z,104.37
2023-12-20T05:34:42.775Z,101.60
2023-12-20T05:35:15.417Z,104.40
2023-12-20T05:35:47.513Z,105.57
2023-12-20T05:36:19.832Z,103.30
2023-12-20T05:36:51.767Z,97.37
2023-12-20T05:37:23.831Z,93.40
2023-12-20T05:37:55.741Z,92.80
2023-12-20T05:38:27.740Z,93.57
2023-12-20T05:38:59.695Z,93.67
2023-12-20T05:39:32.264Z,97.67
2023-12-20T05:40:05.536Z,99.73
2023-12-20T05:40:37.508Z,96.03
2023-12-20T05:41:09.564Z,93.30
2023-12-20T05:41:41.501Z,88.93
2023-12-20T05:42:13.436Z,87.67
2023-12-20T05:42:45.579Z,95.30
2023-12-20T05:43:17.608Z,98.30
2023-12-20T05:43:49.635Z,103.13
2023-12-20T05:44:21.600Z,106.03
2023-12-20T05:44:55.153Z,107.13
2023-12-20T05:45:28.059Z,103.53
2023-12-20T05:45:59.959Z,94.63
2023-12-20T05:46:32.046Z,90.27
2023-12-20T05:47:04.172Z,91.87
2023-12-20T05:47:36.171Z,93.40
2023-12-20T05:48:08.422Z,91.40
2023-12-20T05:48:40.822Z,97.63
2023-12-20T05:49:12.921Z,96.27
2023-12-20T05:49:46.288Z,100.60
2023-12-20T05:50:18.256Z,104.67
2023-12-20T05:50:50.428Z,102.70
2023-12-20T05:51:22.397Z,102.43
2023-12-20T05:51:55.272Z,105.03
2023-12-20T05:52:27.317Z,104.23
2023-12-20T05:52:59.289Z,100.50
2023-12-20T05:53:31.245Z,101.10
2023-12-20T05:54:03.242Z,98.90
2023-12-20T05:54:35.604Z,97.57
2023-12-20T05:55:07.891Z,98.93
2023-12-20T05:55:39.984Z,93.67
2023-12-20T05:56:12.257Z,91.73
2023-12-20T05:56:44.272Z,89.43
2023-12-20T05:57:16.517Z,89.33
2023-12-20T05:57:48.787Z,89.73
2023-12-20T05:58:20.912Z,88.40
2023-12-20T05:58:52.883Z,88.00
2023-12-20T05:59:25.194Z,87.33
2023-12-20T05:59:57.193Z,87.37
2023-12-20T06:00:29.320Z,86.83
2023-12-20T06:01:01.399Z,87.20
2023-12-20T06:01:33.432Z,87.50
2023-12-20T06:02:06.045Z,84.30
2023-12-20T06:02:38.148Z,85.63
2023-12-20T06:03:10.077Z,86.23
2023-12-20T06:03:43.250Z,86.93
2023-12-20T06:04:15.257Z,87.57
2023-12-20T06:04:47.278Z,87.17
2023-12-20T06:05:19.260Z,87.30
2023-12-20T06:05:52.920Z,85.67
2023-12-20T06:06:26.215Z,84.20
2023-12-20T06:06:58.224Z,84.97
2023-12-20T06:07:30.903Z,87.80
2023-12-20T06:08:04.420Z,86.00
2023-12-20T06:08:37.455Z,86.20
2023-12-20T06:09:09.810Z,88.97
2023-12-20T06:09:41.828Z,87.20
2023-12-20T06:10:15.140Z,87.50
2023-12-20T06:10:47.185Z,88.47
2023-12-20T06:11:19.177Z,88.30
2023-12-20T06:11:52.234Z,86.10
2023-12-20T06:12:28.203Z,88.50
2023-12-20T06:13:02.006Z,89.73
2023-12-20T06:13:34.114Z,89.43
2023-12-20T06:14:06.147Z,91.13
2023-12-20T06:14:38.350Z,91.73
2023-12-20T06:15:10.643Z,89.47
2023-12-20T06:15:42.741Z,89.33
2023-12-20T06:16:14.806Z,86.87
2023-12-20T06:16:47.355Z,88.60
2023-12-20T06:17:19.294Z,90.37
2023-12-20T06:17:51.523Z,89.50
2023-12-20T06:18:24.149Z,90.07
2023-12-20T06:18:56.221Z,91.87
2023-12-20T06:19:29.158Z,90.63
2023-12-20T06:20:01.542Z,91.23
2023-12-20T06:20:34.412Z,89.17
2023-12-20T06:21:06.324Z,90.33
2023-12-20T06:21:38.260Z,90.50
2023-12-20T06:22:10.223Z,89.40
2023-12-20T06:22:42.274Z,90.63
2023-12-20T06:23:14.314Z,90.73
2023-12-20T06:23:46.310Z,89.07
2023-12-20T06:24:18.197Z,91.73
2023-12-20T06:24:50.145Z,94.73
2023-12-20T06:25:22.215Z,94.13
2023-12-20T06:25:54.172Z,96.23
2023-12-20T06:26:26.126Z,94.90
2023-12-20T06:26:58.106Z,91.83
2023-12-20T06:27:30.418Z,92.97
2023-12-20T06:28:02.427Z,93.27
2023-12-20T06:28:34.441Z,92.90
2023-12-20T06:29:06.423Z,95.67
2023-12-20T06:29:38.359Z,94.23
2023-12-20T06:30:10.648Z,93.67
2023-12-20T06:30:42.696Z,95.80
2023-12-20T06:31:14.768Z,95.40
2023-12-20T06:31:47.207Z,93.97
2023-12-20T06:32:19.279Z,90.30
2023-12-20T06:32:51.247Z,90.67
2023-12-20T06:33:23.955Z,94.33
2023-12-20T06:33:59.023Z,95.90
2023-12-20T06:34:31.270Z,95.40
2023-12-20T06:35:03.720Z,94.70
2023-12-20T06:35:37.217Z,95.13
2023-12-20T06:36:11.981Z,92.87
2023-12-20T06:36:43.875Z,92.67
2023-12-20T06:37:16.481Z,92.60
2023-12-20T06:37:48.760Z,94.50
2023-12-20T06:38:20.950Z,95.90
2023-12-20T06:38:52.908Z,96.57
2023-12-20T06:39:24.849Z,98.73
2023-12-20T06:39:58.048Z,100.47
2023-12-20T06:40:30.042Z,98.00
2023-12-20T06:41:01.997Z,101.50
2023-12-20T06:41:33.938Z,98.43
2023-12-20T06:42:05.985Z,97.90
2023-12-20T06:42:46.790Z,97.97
2023-12-20T06:43:37.523Z,98.93
2023-12-20T06:44:15.891Z,99.73
2023-12-20T06:44:47.797Z,99.80
2023-12-20T06:45:19.718Z,100.93
2023-12-20T06:45:52.235Z,98.83
2023-12-20T06:46:24.279Z,101.37
2023-12-20T06:46:56.327Z,98.70
2023-12-20T06:47:28.299Z,101.20
2023-12-20T06:48:00.305Z,104.17
2023-12-20T06:48:32.850Z,100.93
2023-12-20T06:49:04.902Z,102.03
2023-12-20T06:49:36.959Z,102.13
2023-12-20T06:50:27.150Z,101.37
2023-12-20T06:51:03.269Z,103.87
2023-12-20T06:51:35.262Z,103.27
2023-12-20T06:52:07.561Z,101.60
2023-12-20T06:52:39.681Z,102.60
2023-12-20T06:53:11.597Z,103.10
2023-12-20T06:53:43.825Z,105.23
2023-12-20T06:54:15.913Z,102.03
2023-12-20T06:54:47.892Z,99.70
2023-12-20T06:55:19.905Z,96.07
2023-12-20T06:55:51.881Z,96.67
2023-12-20T06:56:23.839Z,97.00
2023-12-20T06:56:55.911Z,97.33
2023-12-20T06:57:27.926Z,97.70
2023-12-20T06:57:59.922Z,98.97
2023-12-20T06:58:32.255Z,97.53
2023-12-20T06:59:04.268Z,96.50
2023-12-20T06:59:40.978Z,94.97
2023-12-20T07:00:13.618Z,95.07
2023-12-20T07:00:45.732Z,95.60
2023-12-20T07:01:18.826Z,95.00
2023-12-20T07:01:51.481Z,96.20
2023-12-20T07:02:23.778Z,93.70
2023-12-20T07:02:56.260Z,93.80
2023-12-20T07:03:28.254Z,95.93
2023-12-20T07:04:00.355Z,94.87
2023-12-20T07:04:32.477Z,96.73
2023-12-20T07:05:05.594Z,96.50
2023-12-20T07:05:37.575Z,96.33